Time;durP1;ratioP1;P1;durP2;ratioP2;P2;SDS_P1;SDS_P2;PMS_P1;PMS_P2;Temp;Humidity;BMP_temperature;BMP_pressure;BME280_temperature;BME280_humidity;BME280_pressure;Samples;Min_cycle;Max_cycle;Signal;HPM_P1;HPM_P2
2022/09/20 00:00:47;;;;;;;10.93;6.00;;;;;;;9.91;96.28;98739.45;1676586;85;20980;-41
2022/09/20 00:03:15;;;;;;;7.78;5.80;;;;;;;9.93;96.14;98740.67;1676944;85;21548;-41
2022/09/20 00:05:44;;;;;;;9.33;6.08;;;;;;;9.93;96.22;98745.92;1676887;85;20999;-41
2022/09/20 00:08:14;;;;;;;7.65;5.83;;;;;;;9.97;96.02;98750.08;1676679;85;21007;-41
2022/09/20 00:10:41;;;;;;;9.93;6.08;;;;;;;9.98;95.64;98756.52;1676998;85;21051;-41
2022/09/20 00:13:10;;;;;;;7.62;5.67;;;;;;;9.97;95.50;98762.73;1676917;84;21008;-42
2022/09/20 00:15:45;;;;;;;7.45;5.30;;;;;;;9.94;95.62;98761.59;1676687;85;21007;-41
2022/09/20 00:18:11;;;;;;;11.45;5.22;;;;;;;9.93;95.20;98759.92;1676197;85;21000;-41
2022/09/20 00:20:46;;;;;;;8.90;5.33;;;;;;;9.88;95.63;98764.61;1676826;84;20983;-41
2022/09/20 00:23:12;;;;;;;7.67;5.62;;;;;;;9.82;95.79;98762.34;1676089;85;20976;-42
2022/09/20 00:25:38;;;;;;;7.30;5.12;;;;;;;9.82;95.60;98763.65;1676703;84;21039;-42
2022/09/20 00:28:05;;;;;;;7.95;5.30;;;;;;;9.81;95.93;98767.23;1676707;85;21011;-41
2022/09/20 00:30:34;;;;;;;6.08;4.97;;;;;;;9.78;95.94;98765.61;1677020;85;21004;-41
2022/09/20 00:33:00;;;;;;;7.05;5.40;;;;;;;9.78;95.94;98770.03;1676699;85;20996;-42
2022/09/20 00:35:28;;;;;;;4.83;4.40;;;;;;;9.79;96.01;98770.42;1676699;85;20976;-42
2022/09/20 00:37:54;;;;;;;6.35;5.10;;;;;;;9.77;95.83;98773.61;1676747;85;20976;-41
2022/09/20 00:40:22;;;;;;;8.35;5.40;;;;;;;9.71;96.40;98767.40;1676677;85;21003;-41
2022/09/20 00:42:49;;;;;;;6.22;4.72;;;;;;;9.71;96.12;98766.08;1676772;85;21047;-42
2022/09/20 00:45:25;;;;;;;7.47;5.10;;;;;;;9.70;96.24;98767.04;1676719;85;21038;-41
2022/09/20 00:48:02;;;;;;;7.55;5.83;;;;;;;9.70;96.16;98776.23;1687829;84;21520;-41
2022/09/20 00:50:39;;;;;;;9.48;5.78;;;;;;;9.68;95.97;98769.75;1713519;83;21015;-41
2022/09/20 00:53:38;;;;;;;8.08;5.80;;;;;;;9.67;96.19;98768.05;1713854;83;20976;-41
2022/09/20 00:56:09;;;;;;;11.95;6.10;;;;;;;9.64;96.00;98768.70;1713531;83;21081;-41
2022/09/20 00:58:39;;;;;;;6.03;4.90;;;;;;;9.63;96.10;98770.48;1713429;83;21050;-41
2022/09/20 01:01:05;;;;;;;5.55;4.50;;;;;;;9.59;96.57;98763.27;1710177;83;21055;-42
2022/09/20 01:03:35;;;;;;;6.45;4.60;;;;;;;9.60;96.16;98765.41;1681295;84;21501;-41
2022/09/20 01:06:06;;;;;;;5.97;4.70;;;;;;;9.64;95.92;98770.02;1681658;85;20971;-42
2022/09/20 01:08:35;;;;;;;8.23;4.72;;;;;;;9.60;95.93;98766.73;1681658;85;21011;-41
2022/09/20 01:11:01;;;;;;;13.40;4.70;;;;;;;9.58;95.65;98769.44;1681336;84;21018;-41
2022/09/20 01:13:27;;;;;;;6.50;4.63;;;;;;;9.54;95.78;98771.88;1681582;85;20999;-41
2022/09/20 01:15:55;;;;;;;5.42;4.20;;;;;;;9.46;96.72;98768.01;1681247;85;21433;-42
2022/09/20 01:18:21;;;;;;;;;;;;;;;9.46;96.54;98764.94;1683853;85;21007;-42
2022/09/20 01:20:49;;;;;;;7.63;4.80;;;;;;;9.42;96.48;98771.28;1681574;84;20134;-42
2022/09/20 01:23:38;;;;;;;8.13;4.45;;;;;;;9.41;96.70;98773.55;1681451;85;20999;-41
2022/09/20 01:26:41;;;;;;;6.12;4.22;;;;;;;9.40;96.59;98771.84;1664232;85;20979;-42
2022/09/20 01:29:40;;;;;;;11.08;5.15;;;;;;;9.41;96.55;98771.76;1680638;85;20971;-41
2022/09/20 01:32:10;;;;;;;6.58;4.12;;;;;;;9.43;95.93;98778.23;1681458;85;20971;-42
2022/09/20 01:34:41;;;;;;;4.87;4.28;;;;;;;9.41;95.93;98779.63;1681590;85;21023;-41
2022/09/20 01:37:25;;;;;;;8.33;4.08;;;;;;;9.41;96.22;98784.05;1680322;85;20975;-41
2022/09/20 01:40:13;;;;;;;5.50;4.37;;;;;;;9.40;96.21;98775.78;1681194;85;21018;-42
2022/09/20 01:42:44;;;;;;;7.85;4.20;;;;;;;9.39;95.88;98779.36;1680690;84;20998;-42
2022/09/20 01:45:29;;;;;;;4.60;4.05;;;;;;;9.37;96.95;98777.30;1680567;85;20971;-42
2022/09/20 01:48:32;;;;;;;5.40;4.40;;;;;;;9.39;96.69;98775.42;1683909;83;21546;-42
2022/09/20 01:51:19;;;;;;;8.55;4.00;;;;;;;9.38;97.02;98778.97;1642470;86;20973;-42
2022/09/20 01:54:13;;;;;;;6.17;3.95;;;;;;;9.44;96.72;98777.75;1642175;87;21000;-42
2022/09/20 01:57:04;;;;;;;5.50;3.90;;;;;;;9.40;97.21;98774.47;1642216;87;21037;-42
2022/09/20 01:59:53;;;;;;;5.50;3.92;;;;;;;9.44;97.31;98774.69;1642226;87;20992;-42
2022/09/20 02:02:39;;;;;;;7.20;3.90;;;;;;;9.46;96.70;98768.88;1642179;87;21025;-42
2022/09/20 02:05:39;;;;;;;15.93;4.30;;;;;;;9.49;97.04;98773.92;1642319;87;21029;-42
2022/09/20 02:08:34;;;;;;;5.17;3.50;;;;;;;9.47;96.75;98778.42;1642220;87;20980;-42
2022/09/20 02:11:18;;;;;;;5.62;3.92;;;;;;;9.52;96.74;98772.44;1642244;87;20989;-42
2022/09/20 02:13:58;;;;;;;6.12;3.80;;;;;;;9.52;96.45;98769.81;1642273;87;21044;-42
2022/09/20 02:16:44;;;;;;;5.50;4.17;;;;;;;9.49;96.47;98773.92;1642005;87;21032;-42
2022/09/20 02:19:47;;;;;;;8.08;4.20;;;;;;;9.51;96.58;98773.36;1642521;87;20989;-42
2022/09/20 02:22:51;;;;;;;5.67;4.28;;;;;;;9.49;97.36;98772.61;1642266;87;21053;-41
2022/09/20 02:25:46;;;;;;;5.28;3.87;;;;;;;9.51;96.98;98779.92;1642232;87;20989;-42
2022/09/20 02:29:10;;;;;;;8.05;3.77;;;;;;;9.52;97.62;98779.00;1698800;84;21001;-41
2022/09/20 02:31:56;;;;;;;5.15;4.20;;;;;;;9.53;97.79;98775.45;1698861;84;20990;-42
2022/09/20 02:34:56;;;;;;;6.85;4.33;;;;;;;9.51;98.04;98789.59;1697426;84;21499;-42
2022/09/20 02:37:36;;;;;;;6.62;4.50;;;;;;;9.55;97.85;98783.21;1698808;84;20998;-42
2022/09/20 02:43:29;;;;;;;6.12;3.58;;;;;;;9.59;98.04;98782.95;1743473;78;21635;-41
2022/09/20 02:46:07;;;;;;;4.33;3.70;;;;;;;9.58;98.26;98787.81;1745187;82;21198;-41
2022/09/20 02:48:45;;;;;;;;;;;;;;;9.61;98.17;98781.08;1748830;82;21037;-42
2022/09/20 02:51:28;;;;;;;4.78;3.77;;;;;;;9.61;97.46;98779.77;1746588;82;20107;-42
2022/09/20 02:54:15;;;;;;;4.33;3.90;;;;;;;9.62;96.71;98781.91;1746024;82;21447;-42
2022/09/20 02:56:46;;;;;;;5.72;3.92;;;;;;;9.53;97.69;98788.58;1744827;82;20964;-42
2022/09/20 02:59:34;;;;;;;6.40;3.65;;;;;;;9.55;97.39;98790.64;1746728;82;21524;-42
2022/09/20 03:02:20;;;;;;;7.65;3.52;;;;;;;9.56;97.10;98791.00;1746849;82;20968;-42
2022/09/20 03:05:02;;;;;;;7.47;3.55;;;;;;;9.54;96.86;98795.50;1746660;82;21068;-41
2022/09/20 03:08:01;;;;;;;5.12;3.62;;;;;;;9.40;97.41;98798.09;1738874;82;21035;-42
2022/09/20 03:10:53;;;;;;;5.83;4.20;;;;;;;9.43;96.96;98798.39;1746195;82;20972;-41
2022/09/20 03:13:33;;;;;;;5.37;3.90;;;;;;;9.39;97.09;98793.79;1766921;80;20952;-42
2022/09/20 03:16:26;;;;;;;6.45;4.22;;;;;;;9.37;97.20;98793.04;1719027;80;21016;-42
2022/09/20 03:19:14;;;;;;;4.87;3.60;;;;;;;9.37;97.12;98804.37;1774811;80;20957;-41
2022/09/20 03:22:07;;;;;;;6.75;3.83;;;;;;;9.37;97.18;98800.91;1774705;80;20976;-42
2022/09/20 03:24:44;;;;;;;5.87;4.08;;;;;;;9.35;96.87;98808.00;1774933;80;21015;-42
2022/09/20 03:27:17;;;;;;;;;;;;;;;9.29;97.02;98801.33;1774817;80;20980;-41
2022/09/20 03:30:25;;;;;;;5.95;4.55;;;;;;;9.22;97.34;98803.48;1774947;80;20132;-41
2022/09/20 03:33:08;;;;;;;4.55;3.95;;;;;;;9.24;97.25;98800.78;1774877;80;21951;-42
2022/09/20 03:36:07;;;;;;;7.10;3.83;;;;;;;9.23;97.16;98803.84;1775304;81;20964;-41
2022/09/20 03:39:07;;;;;;;5.05;4.05;;;;;;;9.21;97.12;98803.56;1775267;81;21444;-41
2022/09/20 03:42:15;;;;;;;5.50;4.12;;;;;;;9.19;96.84;98811.52;1776102;80;21677;-41
2022/09/20 03:44:57;;;;;;;6.75;4.33;;;;;;;9.13;97.55;98811.02;1780719;80;20987;-41
2022/09/20 03:47:43;;;;;;;7.08;4.22;;;;;;;9.16;97.41;98810.38;1780485;80;20983;-41
2022/09/20 03:50:31;;;;;;;8.48;4.62;;;;;;;9.17;97.38;98814.70;1781113;80;21425;-42
2022/09/20 03:53:11;;;;;;;6.55;4.47;;;;;;;9.15;96.80;98823.13;1780733;80;20976;-42
2022/09/20 03:55:54;;;;;;;9.73;5.40;;;;;;;9.11;96.79;98821.59;1780786;80;21490;-41
2022/09/20 03:58:47;;;;;;;5.53;4.22;;;;;;;9.13;96.91;98819.75;1779496;80;20948;-41
2022/09/20 04:01:27;;;;;;;4.87;4.15;;;;;;;9.15;96.67;98823.13;1780702;80;21519;-41
2022/09/20 04:04:17;;;;;;;5.45;4.22;;;;;;;9.15;97.07;98824.44;1780106;80;20999;-41
2022/09/20 04:07:03;;;;;;;5.17;3.80;;;;;;;9.16;97.13;98822.66;1780256;80;20980;-41
2022/09/20 04:09:54;;;;;;;7.83;4.60;;;;;;;9.17;97.21;98831.75;1731345;80;20948;-41
2022/09/20 04:12:40;;;;;;;7.97;4.40;;;;;;;9.18;97.21;98830.80;1780690;80;21026;-41
2022/09/20 04:15:20;;;;;;;7.20;4.62;;;;;;;9.17;97.62;98833.06;1781009;80;20986;-41
2022/09/20 04:18:18;;;;;;;5.22;4.40;;;;;;;9.15;97.65;98832.75;1742227;80;21031;-41
2022/09/20 04:21:16;;;;;;;9.88;5.20;;;;;;;9.12;98.26;98832.95;1780697;80;20991;-41
2022/09/20 04:24:20;;;;;;;5.10;4.60;;;;;;;9.18;97.21;98835.22;1780665;80;20983;-41
2022/09/20 04:27:13;;;;;;;6.78;4.67;;;;;;;9.16;98.10;98839.23;1780981;80;20990;-41
2022/09/20 04:29:56;;;;;;;6.65;4.45;;;;;;;9.17;97.94;98845.34;1780737;80;21022;-42
2022/09/20 04:32:30;;;;;;;7.10;5.00;;;;;;;9.18;97.57;98849.64;1780581;80;21035;-43
2022/09/20 04:38:17;;;;;;;11.00;5.80;;;;;;;9.08;97.83;98845.84;1780882;80;21015;-41
2022/09/20 04:41:25;;;;;;;8.53;5.03;;;;;;;9.03;98.57;98839.55;1748318;80;20964;-41
2022/09/20 04:44:34;;;;;;;8.18;5.87;;;;;;;9.02;99.57;98845.72;1755430;80;21497;-41
2022/09/20 04:47:46;;;;;;;11.90;5.97;;;;;;;9.07;99.03;98847.63;1754407;81;21041;-42
2022/09/20 04:50:49;;;;;;;9.43;5.75;;;;;;;9.12;98.80;98850.00;1754336;81;21152;-41
2022/09/20 04:53:45;;;;;;;11.90;5.72;;;;;;;9.14;98.57;98851.59;1754962;80;21025;-42
2022/09/20 04:56:53;;;;;;;10.73;5.90;;;;;;;9.14;98.87;98852.07;1755413;82;21060;-41
2022/09/20 04:59:54;;;;;;;11.08;5.87;;;;;;;9.16;98.57;98856.76;1754957;82;21341;-41
2022/09/20 05:02:45;;;;;;;7.47;5.90;;;;;;;9.18;97.93;98866.70;1685048;85;21004;-41
2022/09/20 05:05:35;;;;;;;7.20;5.47;;;;;;;9.16;98.39;98864.16;1684934;85;21009;-41
2022/09/20 05:08:39;;;;;;;10.25;5.70;;;;;;;9.23;97.68;98869.91;1684532;84;21498;-42
2022/09/20 05:11:49;;;;;;;6.20;5.33;;;;;;;9.24;97.82;98865.05;1684994;85;21045;-41
2022/09/20 05:14:40;;;;;;;10.30;5.92;;;;;;;9.26;97.51;98874.13;1684892;85;20996;-41
2022/09/20 05:17:45;;;;;;;9.00;5.37;;;;;;;9.28;97.81;98876.19;1684967;84;21497;-42
2022/09/20 05:20:35;;;;;;;6.30;5.75;;;;;;;9.32;97.53;98881.67;1684932;85;20985;-42
2022/09/20 05:23:22;;;;;;;9.80;5.25;;;;;;;9.30;96.97;98884.38;1683953;84;20989;-42
2022/09/20 05:26:23;;;;;;;7.03;5.72;;;;;;;9.33;97.35;98890.77;1684666;85;21009;-42
2022/09/20 05:29:20;;;;;;;6.90;5.33;;;;;;;9.38;97.01;98889.18;1684915;84;21013;-42
2022/09/20 05:31:55;;;;;;;;;;;;;;;9.40;96.96;98895.19;1687210;85;21002;-42
2022/09/20 05:34:38;;;;;;;7.28;5.47;;;;;;;9.32;96.90;98896.10;1685007;84;20143;-42
2022/09/20 05:37:23;;;;;;;7.55;6.17;;;;;;;9.44;96.87;98899.80;1684781;84;20993;-42
2022/09/20 05:39:58;;;;;;;12.07;6.05;;;;;;;9.44;96.36;98906.36;1732685;82;20984;-42
2022/09/20 05:42:53;;;;;;;11.60;5.90;;;;;;;9.44;96.49;98907.23;1754222;80;21056;-42
2022/09/20 05:45:48;;;;;;;8.33;5.92;;;;;;;9.43;96.57;98913.39;1754804;81;20977;-42
2022/09/20 05:48:30;;;;;;;7.78;6.20;;;;;;;9.48;96.14;98919.67;1754899;80;21005;-42
2022/09/20 05:51:07;;;;;;;8.65;6.40;;;;;;;9.47;96.18;98918.84;1754747;81;21048;-42
2022/09/20 05:54:09;;;;;;;10.38;6.05;;;;;;;9.47;96.45;98920.16;1754993;81;21451;-42
2022/09/20 05:56:52;;;;;;;7.95;6.05;;;;;;;9.53;95.80;98919.83;1755051;82;20997;-42
2022/09/20 05:59:57;;;;;;;7.67;6.20;;;;;;;9.55;95.54;98923.20;1754660;81;20995;-42
2022/09/20 06:03:03;;;;;;;9.35;6.00;;;;;;;9.56;95.43;98930.60;1754891;82;20973;-42
2022/09/20 06:06:07;;;;;;;12.63;5.45;;;;;;;9.56;95.24;98930.12;1755000;82;21424;-42
2022/09/20 06:08:51;;;;;;;10.48;5.58;;;;;;;9.63;95.11;98931.95;1754887;82;20977;-42
2022/09/20 06:11:48;;;;;;;6.20;5.58;;;;;;;9.67;94.91;98935.24;1754905;82;21048;-42
2022/09/20 06:14:37;;;;;;;9.28;5.92;;;;;;;9.57;94.75;98936.25;1724348;82;20973;-42
2022/09/20 06:17:42;;;;;;;11.12;6.03;;;;;;;9.59;94.65;98937.84;1754703;81;21119;-42
2022/09/20 06:20:16;;;;;;;7.42;5.80;;;;;;;9.65;94.61;98933.17;1754968;81;20965;-42
2022/09/20 06:22:46;;;;;;;9.85;5.72;;;;;;;9.66;94.63;98934.41;1754711;80;20977;-42
2022/09/20 06:25:43;;;;;;;6.35;5.72;;;;;;;9.66;94.37;98940.97;1754389;80;21044;-42
2022/09/20 06:28:20;;;;;;;9.25;6.55;;;;;;;9.61;94.45;98939.91;1754960;80;20984;-42
2022/09/20 06:30:49;;;;;;;6.62;5.90;;;;;;;9.65;94.92;98941.05;1733875;82;20965;-42
2022/09/20 06:33:19;;;;;;;8.83;6.20;;;;;;;9.69;94.71;98934.20;1754514;80;21000;-42
2022/09/20 06:41:59;;;;;;;8.78;6.85;;;;;;;9.71;94.85;98943.31;1755473;80;21100;-42
2022/09/20 06:44:25;;;;;;;7.78;6.37;;;;;;;9.80;94.66;98941.03;1776427;80;21534;-42
2022/09/20 06:46:54;;;;;;;9.25;7.22;;;;;;;9.82;94.55;98943.53;1780814;80;20992;-42
2022/09/20 06:49:21;;;;;;;7.95;6.25;;;;;;;9.90;94.30;98954.94;1780540;80;21003;-42
2022/09/20 06:51:49;;;;;;;6.53;5.67;;;;;;;9.94;93.98;98956.44;1780925;80;21492;-42
2022/09/20 06:54:17;;;;;;;;;;;;;;;9.85;93.99;98957.81;1783270;80;20976;-42
2022/09/20 06:56:45;;;;;;;8.50;6.67;;;;;;;9.85;93.91;98961.75;1780098;80;20096;-42
2022/09/20 06:59:11;;;;;;;7.58;5.92;;;;;;;9.88;94.20;98957.64;1780858;80;21461;-42
2022/09/20 07:01:37;;;;;;;8.55;6.20;;;;;;;9.97;93.91;98964.99;1780864;80;20994;-42
2022/09/20 07:04:05;;;;;;;8.08;6.22;;;;;;;9.91;93.91;98962.70;1780907;80;20994;-42
2022/09/20 07:06:32;;;;;;;6.62;5.92;;;;;;;10.01;93.87;98970.08;1780828;80;20994;-42
2022/09/20 07:08:58;;;;;;;8.05;5.70;;;;;;;10.03;93.36;98969.52;1780802;80;21515;-42
2022/09/20 07:11:24;;;;;;;9.05;6.40;;;;;;;10.04;93.46;98973.81;1780699;80;21027;-42
2022/09/20 07:13:53;;;;;;;10.68;6.15;;;;;;;10.00;93.42;98975.77;1780879;80;21425;-42
2022/09/20 07:16:19;;;;;;;7.92;5.78;;;;;;;9.94;93.41;98977.45;1780764;80;21504;-42
2022/09/20 07:18:47;;;;;;;11.50;6.30;;;;;;;10.01;93.79;98982.73;1780835;80;21038;-42
2022/09/20 07:21:16;;;;;;;9.15;5.67;;;;;;;10.05;93.68;98984.24;1780855;80;20964;-42
2022/09/20 07:23:47;;;;;;;9.15;6.30;;;;;;;10.14;93.50;98990.75;1781043;80;20983;-41
2022/09/20 07:26:28;;;;;;;8.30;5.40;;;;;;;10.18;92.99;98993.09;1762121;80;20973;-42
2022/09/20 07:28:57;;;;;;;8.40;5.70;;;;;;;10.20;92.91;98979.87;1720596;83;21016;-41
2022/09/20 07:31:25;;;;;;;7.33;5.60;;;;;;;10.21;92.61;98984.67;1720714;83;21490;-41
2022/09/20 07:33:51;;;;;;;9.45;6.10;;;;;;;10.24;92.86;98984.03;1720767;83;21004;-42
2022/09/20 07:36:17;;;;;;;10.30;5.45;;;;;;;10.32;92.70;98981.81;1720777;82;21452;-42
2022/09/20 07:38:49;;;;;;;8.30;5.28;;;;;;;10.35;92.27;98988.20;1720929;83;21001;-42
2022/09/20 07:41:17;;;;;;;7.28;5.20;;;;;;;10.44;92.41;98987.27;1720848;83;21047;-42
2022/09/20 07:43:45;;;;;;;8.55;5.47;;;;;;;10.49;92.17;98979.96;1726921;81;21498;-42
2022/09/20 07:46:12;;;;;;;8.40;5.67;;;;;;;10.60;92.24;98983.27;1731562;83;21008;-42
2022/09/20 07:48:38;;;;;;;;;;;;;;;10.56;91.99;98994.43;1733983;83;21004;-42
2022/09/20 07:51:09;;;;;;;9.37;6.03;;;;;;;10.60;91.79;98991.98;1731593;81;20116;-42
2022/09/20 07:53:36;;;;;;;11.60;5.25;;;;;;;10.55;91.84;98988.78;1731269;82;21055;-42
2022/09/20 07:56:15;;;;;;;11.48;5.95;;;;;;;10.64;92.11;98997.46;1731340;81;21010;-42
2022/09/20 07:58:42;;;;;;;11.85;5.45;;;;;;;10.76;91.77;99002.44;1731172;82;20977;-42
2022/09/20 08:01:12;;;;;;;5.80;4.83;;;;;;;10.81;91.67;99003.00;1731524;83;21068;-42
2022/09/20 08:03:39;;;;;;;9.45;5.85;;;;;;;10.88;91.38;98996.91;1731315;83;21012;-42
2022/09/20 08:06:09;;;;;;;7.25;5.10;;;;;;;10.92;91.08;99002.35;1731569;83;21016;-42
2022/09/20 08:08:37;;;;;;;8.13;5.15;;;;;;;10.97;90.55;99012.13;1731356;81;21004;-43
2022/09/20 08:11:11;;;;;;;8.78;5.40;;;;;;;11.01;90.25;99008.84;1731307;82;21028;-42
2022/09/20 08:13:40;;;;;;;8.18;5.35;;;;;;;11.04;89.96;99006.87;1731263;83;21000;-42
2022/09/20 08:16:09;;;;;;;7.22;5.20;;;;;;;11.06;89.72;99002.35;1730776;81;21044;-41
2022/09/20 08:18:36;;;;;;;6.83;5.35;;;;;;;11.18;89.77;99009.10;1731284;81;21043;-43
2022/09/20 08:21:10;;;;;;;7.45;5.17;;;;;;;11.25;89.31;99015.20;1731568;83;21004;-42
2022/09/20 08:23:41;;;;;;;8.75;5.80;;;;;;;11.25;88.67;99013.05;1731189;83;21477;-41
2022/09/20 08:26:13;;;;;;;7.90;5.53;;;;;;;11.14;88.30;99011.91;1731590;81;20994;-42
2022/09/20 08:28:40;;;;;;;10.95;6.00;;;;;;;11.31;88.97;99016.59;1731543;81;21005;-42
2022/09/20 08:31:14;;;;;;;;;;;;;;;11.33;88.58;99018.20;1734093;82;21579;-42
2022/09/20 08:33:41;;;;;;;11.83;6.55;;;;;;;11.17;88.19;99018.80;1731533;83;20107;-42
2022/09/20 08:36:12;;;;;;;7.25;5.78;;;;;;;11.29;88.55;99021.11;1731618;82;21010;-42
2022/09/20 08:38:38;;;;;;;7.53;5.78;;;;;;;11.23;88.33;99024.98;1731525;82;21037;-42
2022/09/20 08:41:12;;;;;;;9.30;5.40;;;;;;;11.21;88.14;99017.66;1731921;83;21539;-41
2022/09/20 08:43:59;;;;;;;9.93;6.03;;;;;;;11.24;87.45;99017.92;1709667;80;21031;-42
2022/09/20 08:46:34;;;;;;;8.53;5.50;;;;;;;11.52;88.11;99018.36;1724057;83;20971;-42
2022/09/20 08:49:07;;;;;;;6.28;5.60;;;;;;;11.74;87.28;99020.94;1723941;83;21589;-42
2022/09/20 08:51:39;;;;;;;7.90;5.67;;;;;;;11.96;87.63;99025.69;1724211;83;20986;-42
2022/09/20 08:54:13;;;;;;;9.13;5.20;;;;;;;12.06;86.40;99028.95;1723975;83;20996;-42
2022/09/20 08:56:39;;;;;;;9.88;5.37;;;;;;;11.85;83.78;99032.94;1723948;82;21001;-42
2022/09/20 08:59:07;;;;;;;6.42;5.17;;;;;;;11.89;84.80;99029.99;1723940;83;21057;-42
2022/09/20 09:01:34;;;;;;;9.08;5.55;;;;;;;11.92;84.85;99036.06;1723967;83;21570;-43
2022/09/20 09:04:22;;;;;;;9.10;5.83;;;;;;;11.80;84.64;99038.49;1724040;83;21026;-42
2022/09/20 09:06:52;;;;;;;6.05;5.25;;;;;;;11.90;85.59;99040.95;1717071;81;20997;-42
2022/09/20 09:09:25;;;;;;;6.08;4.95;;;;;;;11.85;85.20;99040.84;1717736;83;21048;-42
2022/09/20 09:11:54;;;;;;;5.50;4.92;;;;;;;11.90;85.21;99039.63;1717593;83;21025;-42
2022/09/20 09:14:51;;;;;;;11.20;5.25;;;;;;;12.01;85.37;99035.47;1717725;83;21035;-42
2022/09/20 09:17:23;;;;;;;7.15;4.83;;;;;;;12.06;84.75;99038.63;1717862;83;20966;-42
2022/09/20 09:19:59;;;;;;;9.28;5.10;;;;;;;12.15;84.35;99038.05;1717797;83;20981;-42
2022/09/20 09:22:44;;;;;;;6.00;4.80;;;;;;;12.23;84.62;99033.58;1717081;83;21056;-42
2022/09/20 09:25:18;;;;;;;8.88;5.33;;;;;;;12.34;84.50;99037.66;1717874;83;21033;-42
2022/09/20 09:28:09;;;;;;;8.68;5.25;;;;;;;12.34;84.55;99043.41;1722725;81;20989;-49
2022/09/20 09:30:42;;;;;;;8.05;4.97;;;;;;;12.28;84.05;99037.59;1723762;82;21545;-42
2022/09/20 09:33:29;;;;;;;9.08;5.70;;;;;;;12.36;83.92;99031.80;1721407;81;20981;-42
2022/09/20 09:36:19;;;;;;;;;;;;;;;12.28;83.59;99034.95;1721569;82;20987;-44
2022/09/20 09:38:46;;;;;;;7.40;5.55;;;;;;;12.43;83.51;99035.72;1722390;83;20140;-42
2022/09/20 09:41:28;;;;;;;8.70;5.37;;;;;;;12.58;84.05;99032.52;1723663;83;21034;-42
2022/09/20 09:44:09;;;;;;;6.15;4.45;;;;;;;12.62;83.27;99036.62;1706784;82;21390;-43
2022/09/20 09:46:39;;;;;;;6.62;5.10;;;;;;;12.64;83.34;99036.08;1746107;82;21015;-43
2022/09/20 09:49:18;;;;;;;6.00;4.95;;;;;;;12.70;82.89;99037.91;1746113;82;21044;-42
2022/09/20 09:52:23;;;;;;;7.78;5.35;;;;;;;12.66;82.24;99045.19;1745506;82;21042;-42
2022/09/20 09:54:51;;;;;;;5.47;4.62;;;;;;;12.49;82.13;99055.08;1744316;81;21055;-42
2022/09/20 09:57:32;;;;;;;9.48;4.10;;;;;;;12.35;82.47;99049.04;1746217;82;21495;-42
2022/09/20 10:00:14;;;;;;;8.45;4.97;;;;;;;12.18;82.90;99055.44;1746118;82;21011;-42
2022/09/20 10:02:51;;;;;;;7.10;4.90;;;;;;;12.11;83.37;99054.98;1746122;82;21088;-42
2022/09/20 10:05:38;;;;;;;4.55;4.08;;;;;;;12.14;83.87;99053.95;1746081;82;21866;-42
2022/09/20 10:08:23;;;;;;;11.80;4.62;;;;;;;12.12;84.00;99063.28;1745915;82;21466;-42
2022/09/20 10:11:14;;;;;;;6.62;4.78;;;;;;;12.14;84.04;99058.75;1746105;82;20964;-42
2022/09/20 10:14:14;;;;;;;6.17;5.00;;;;;;;12.25;84.30;99065.95;1746326;82;21035;-42
2022/09/20 10:17:01;;;;;;;5.60;4.33;;;;;;;12.23;83.69;99073.95;1745770;82;20987;-43
2022/09/20 10:19:55;;;;;;;6.83;4.80;;;;;;;12.17;83.74;99067.78;1746386;82;20987;-43
2022/09/20 10:23:03;;;;;;;5.90;4.65;;;;;;;12.08;83.93;99074.97;1707568;82;20993;-44
2022/09/20 10:25:43;;;;;;;6.28;4.40;;;;;;;12.03;84.24;99073.94;1702015;83;20991;-43
2022/09/20 10:28:49;;;;;;;6.80;4.65;;;;;;;12.28;84.55;99075.83;1700208;83;20975;-42
2022/09/20 10:31:23;;;;;;;6.95;4.17;;;;;;;12.47;83.79;99074.12;1680615;84;21016;-42
2022/09/20 10:34:06;;;;;;;6.22;5.08;;;;;;;12.38;82.59;99081.33;1675606;84;21080;-42
2022/09/20 10:36:44;;;;;;;12.37;4.67;;;;;;;12.37;83.12;99084.06;1633355;85;21478;-42
2022/09/20 10:39:34;;;;;;;7.95;5.08;;;;;;;12.43;83.63;99086.31;1676885;84;21071;-46
2022/09/20 10:45:43;;;;;;;26.55;13.32;;;;;;;12.52;83.22;99088.33;1676625;84;21165;-42
2022/09/20 10:48:20;;;;;;;15.83;9.28;;;;;;;12.60;82.29;99084.69;1676982;85;21060;-42
2022/09/20 10:51:14;;;;;;;7.78;5.33;;;;;;;12.57;82.48;99084.92;1676208;84;21025;-43
2022/09/20 10:54:04;;;;;;;11.10;8.00;;;;;;;12.63;82.02;99085.81;1676740;84;21053;-42
2022/09/20 10:56:48;;;;;;;13.03;6.53;;;;;;;12.57;82.02;99088.02;1676870;84;21013;-49
2022/09/20 10:59:28;;;;;;;6.87;4.35;;;;;;;12.54;81.71;99087.75;1695333;82;20969;-42
2022/09/20 11:02:14;;;;;;;6.78;4.92;;;;;;;12.45;81.41;99094.96;1743114;82;20976;-42
2022/09/20 11:05:08;;;;;;;11.97;4.85;;;;;;;12.40;81.42;99094.41;1742178;82;21012;-42
2022/09/20 11:07:48;;;;;;;7.03;4.20;;;;;;;12.52;81.51;99098.88;1743498;82;21028;-43
2022/09/20 11:10:28;;;;;;;7.72;4.22;;;;;;;12.54;81.24;99098.30;1735567;82;21028;-42
2022/09/20 11:13:11;;;;;;;4.83;4.33;;;;;;;12.51;81.33;99097.66;1743453;82;20968;-43
2022/09/20 11:15:54;;;;;;;5.70;3.92;;;;;;;12.63;81.12;99101.64;1743350;82;20980;-43
2022/09/20 11:18:38;;;;;;;6.12;4.45;;;;;;;12.50;81.21;99102.10;1743101;81;21564;-43
2022/09/20 11:21:30;;;;;;;6.40;4.62;;;;;;;12.44;81.36;99099.40;1743454;82;21035;-42
2022/09/20 11:24:07;;;;;;;7.40;4.55;;;;;;;12.41;81.68;99109.30;1743697;82;21052;-43
2022/09/20 11:26:56;;;;;;;8.45;4.70;;;;;;;12.42;81.29;99113.61;1738932;82;20968;-42
2022/09/20 11:29:31;;;;;;;7.60;5.17;;;;;;;12.40;81.38;99111.55;1739055;81;21458;-42
2022/09/20 11:32:23;;;;;;;6.35;4.60;;;;;;;12.43;81.87;99107.41;1743852;82;20996;-42
2022/09/20 11:34:54;;;;;;;6.03;4.15;;;;;;;12.58;81.64;99105.06;1743464;82;21471;-43
2022/09/20 11:37:24;;;;;;;9.30;5.45;;;;;;;12.70;81.63;99112.64;1743624;82;21064;-42
2022/09/20 11:39:58;;;;;;;9.30;5.58;;;;;;;12.63;81.01;99114.00;1743942;82;20992;-42
2022/09/20 11:42:32;;;;;;;6.72;5.33;;;;;;;12.70;81.29;99114.41;1743647;81;21044;-42
2022/09/20 11:44:57;;;;;;;7.97;4.80;;;;;;;12.63;81.44;99117.47;1694329;84;21031;-43
2022/09/20 11:47:40;;;;;;;8.95;4.40;;;;;;;12.57;81.32;99114.39;1686475;84;21429;-43
2022/09/20 11:50:41;;;;;;;7.08;4.58;;;;;;;12.48;80.99;99119.83;1686544;85;21496;-43
2022/09/20 11:53:38;;;;;;;4.10;3.70;;;;;;;13.23;82.30;99110.78;1686383;85;21002;-43
2022/09/20 11:56:13;;;;;;;5.50;4.17;;;;;;;15.17;78.75;99106.41;1686267;85;21038;-43
2022/09/20 11:58:51;;;;;;;4.10;3.67;;;;;;;15.58;74.49;99116.09;1692281;84;20982;-46
2022/09/20 12:01:28;;;;;;;6.20;4.72;;;;;;;16.67;68.72;99113.92;1708892;83;21198;-44
2022/09/20 12:04:14;;;;;;;2.87;2.52;;;;;;;17.62;63.16;99112.45;1708868;84;21010;-43
2022/09/20 12:06:41;;;;;;;3.35;2.27;;;;;;;18.33;66.66;99112.86;1708757;83;21025;-43
2022/09/20 12:09:29;;;;;;;4.67;2.65;;;;;;;17.53;61.25;99115.08;1708689;84;20994;-43
2022/09/20 12:11:56;;;;;;;3.05;2.85;;;;;;;16.91;64.48;99122.16;1707775;83;21068;-43
2022/09/20 12:14:28;;;;;;;3.58;2.80;;;;;;;16.29;61.02;99115.27;1709001;84;21029;-43
2022/09/20 12:16:55;;;;;;;5.70;2.92;;;;;;;16.13;63.27;99118.33;1708531;83;21029;-42
2022/09/20 12:19:36;;;;;;;2.95;2.65;;;;;;;16.17;63.84;99110.50;1708810;84;21006;-44
2022/09/20 12:22:07;;;;;;;2.92;2.62;;;;;;;15.79;61.03;99108.26;1738976;82;21507;-41
2022/09/20 12:24:40;;;;;;;3.20;2.90;;;;;;;16.53;61.64;99104.44;1744528;80;20982;-42
2022/09/20 12:27:31;;;;;;;4.78;3.02;;;;;;;16.75;63.55;99110.13;1744304;82;21003;-42
2022/09/20 12:30:17;;;;;;;6.47;3.40;;;;;;;18.58;56.78;99097.33;1742721;82;20975;-42
2022/09/20 12:32:56;;;;;;;3.00;2.70;;;;;;;20.07;52.12;99099.77;1744540;82;20978;-43
2022/09/20 12:35:43;;;;;;;2.12;1.98;;;;;;;21.68;53.21;99096.52;1745014;82;20963;-43
2022/09/20 12:38:26;;;;;;;3.65;2.20;;;;;;;22.74;48.68;99091.89;1743038;82;21523;-42
2022/09/20 12:41:02;;;;;;;5.33;2.42;;;;;;;23.15;51.46;99097.25;1744813;82;20967;-41
2022/09/20 12:43:31;;;;;;;3.20;2.27;;;;;;;23.79;46.69;99091.01;1744690;82;20987;-41
2022/09/20 12:45:57;;;;;;;3.37;3.02;;;;;;;24.93;43.02;99100.72;1788156;80;21488;-43
2022/09/20 12:48:24;;;;;;;5.78;5.22;;;;;;;25.79;42.88;99089.86;1788258;80;21030;-42
2022/09/20 12:54:06;;;;;;;33.50;21.48;;;;;;;24.88;41.98;99095.36;1757085;82;21474;-43
2022/09/20 12:56:36;;;;;;;11.95;8.43;;;;;;;23.28;43.80;99093.52;1756620;82;20961;-43
2022/09/20 12:59:06;;;;;;;4.80;3.58;;;;;;;22.41;44.70;99082.50;1755945;82;20993;-42
2022/09/20 13:01:36;;;;;;;3.05;2.47;;;;;;;21.72;44.36;99089.83;1756895;82;21487;-42